Terminal Aerodrome Forecast
Issued by NWS

Home | Current Version | Previous Version | Text Only | Print | Product List | Glossary On
Versions: 1 2 3 4 5 6 7 8 9 10 11 12 13
000
FTUS46 KSEW 281300 AAA
TAFBFI
TAF AMD
KBFI 281323Z 2813/2912 19005KT P6SM SCT009
      TEMPO 2813/2815 BKN009
     FM281500 19005KT P6SM OVC009
     FM281800 22008KT P6SM BKN025
     FM282000 22008KT P6SM BKN035=

USA.gov is the U.S. government's official web portal to all federal, state and local government web resources and services.